createdAt,value
2017-12-02T00:02:05.009Z,77.94
2017-12-02T00:04:32.591Z,78.13
2017-12-02T00:07:00.250Z,79.03
2017-12-02T00:09:27.864Z,79.28
2017-12-02T00:11:56.253Z,79.94
2017-12-02T00:14:23.903Z,79.27
2017-12-02T00:16:51.601Z,78.90
2017-12-02T00:19:19.410Z,79.15
2017-12-02T00:21:46.989Z,79.30
2017-12-02T00:24:14.567Z,78.70
2017-12-02T00:26:42.161Z,79.04
2017-12-02T00:29:09.742Z,79.06
2017-12-02T00:31:37.340Z,79.04
2017-12-02T00:34:04.926Z,79.26
2017-12-02T00:36:32.749Z,79.58
2017-12-02T00:39:00.379Z,79.66
2017-12-02T00:41:27.975Z,80.13
2017-12-02T00:43:55.573Z,80.53
2017-12-02T00:46:23.190Z,80.73
2017-12-02T00:48:50.789Z,80.51
2017-12-02T00:51:18.324Z,80.94
2017-12-02T00:53:46.923Z,79.81
2017-12-02T00:56:14.508Z,79.86
2017-12-02T00:58:42.288Z,80.31
2017-12-02T01:01:09.862Z,79.94
2017-12-02T01:03:38.196Z,80.40
2017-12-02T01:06:05.750Z,80.04
2017-12-02T01:08:33.385Z,79.80
2017-12-02T01:11:00.970Z,79.16
2017-12-02T01:13:29.437Z,79.13
2017-12-02T01:15:57.462Z,80.51
2017-12-02T01:18:25.452Z,80.13
2017-12-02T01:20:53.693Z,80.44
2017-12-02T01:23:21.774Z,79.31
2017-12-02T01:25:49.528Z,79.23
2017-12-02T01:28:17.082Z,78.93
2017-12-02T01:30:44.669Z,80.05
2017-12-02T01:33:12.257Z,79.28
2017-12-02T01:35:40.011Z,79.71
2017-12-02T01:38:07.612Z,80.11
2017-12-02T01:40:36.609Z,79.20
2017-12-02T01:43:04.194Z,80.08
2017-12-02T01:45:31.799Z,80.43
2017-12-02T01:47:59.394Z,80.21
2017-12-02T01:50:26.977Z,78.79
2017-12-02T01:52:55.170Z,78.82
2017-12-02T01:55:22.766Z,78.40
2017-12-02T01:57:50.354Z,78.52
2017-12-02T02:00:17.967Z,79.12
2017-12-02T02:02:45.490Z,79.01
2017-12-02T02:05:13.017Z,79.29
2017-12-02T02:07:40.721Z,78.55
2017-12-02T02:10:08.454Z,79.66
2017-12-02T02:12:36.350Z,78.73
2017-12-02T02:15:03.965Z,78.91
2017-12-02T02:17:31.537Z,78.45
2017-12-02T02:20:02.663Z,79.05
2017-12-02T02:22:30.293Z,79.13
2017-12-02T02:24:58.609Z,79.40
2017-12-02T02:27:26.121Z,78.44
2017-12-02T02:29:53.685Z,79.00
2017-12-02T02:32:21.227Z,78.78
2017-12-02T02:34:48.762Z,78.03
2017-12-02T02:37:16.325Z,77.55
2017-12-02T02:39:44.011Z,79.22
2017-12-02T02:42:11.588Z,77.80
2017-12-02T02:44:39.181Z,78.30
2017-12-02T02:47:06.770Z,77.99
2017-12-02T02:49:34.352Z,79.61
2017-12-02T02:52:01.924Z,79.04
2017-12-02T02:54:29.575Z,78.88
2017-12-02T02:56:57.312Z,79.40
2017-12-02T02:59:24.872Z,78.98
2017-12-02T03:01:52.671Z,79.79
2017-12-02T03:04:20.406Z,77.70
2017-12-02T03:06:47.913Z,78.98
2017-12-02T03:09:15.565Z,77.84
2017-12-02T03:11:43.147Z,78.48
2017-12-02T03:14:10.749Z,78.89
2017-12-02T03:16:38.364Z,78.16
2017-12-02T03:19:05.995Z,78.33
2017-12-02T03:21:33.746Z,77.24
2017-12-02T03:24:01.414Z,78.62
2017-12-02T03:26:29.025Z,78.42
2017-12-02T03:28:56.782Z,78.18
2017-12-02T03:31:24.359Z,77.52
2017-12-02T03:33:51.939Z,77.42
2017-12-02T03:36:19.749Z,77.74
2017-12-02T03:38:47.389Z,77.73
2017-12-02T03:41:15.166Z,78.05
2017-12-02T03:43:43.471Z,78.24
2017-12-02T03:46:11.082Z,78.32
2017-12-02T03:48:38.671Z,78.70
2017-12-02T03:51:06.450Z,78.49
2017-12-02T03:53:34.347Z,79.09
2017-12-02T03:56:01.992Z,78.46
2017-12-02T03:58:29.629Z,78.97
2017-12-02T04:00:57.226Z,79.25
2017-12-02T04:03:24.777Z,79.09
2017-12-02T04:05:52.560Z,79.21
2017-12-02T04:08:20.183Z,78.11
2017-12-02T04:10:47.768Z,78.41
2017-12-02T04:13:15.333Z,78.22
2017-12-02T04:15:42.927Z,79.30
2017-12-02T04:18:10.485Z,78.92
2017-12-02T04:20:38.089Z,78.40
2017-12-02T04:23:06.391Z,78.28
2017-12-02T04:25:34.895Z,78.21
2017-12-02T04:28:02.493Z,77.54
2017-12-02T04:30:30.637Z,77.84
2017-12-02T04:32:58.413Z,78.57
2017-12-02T04:35:26.211Z,78.62
2017-12-02T04:37:54.763Z,79.57
2017-12-02T04:40:23.117Z,79.19
2017-12-02T04:42:50.678Z,79.96
2017-12-02T04:45:18.275Z,79.42
2017-12-02T04:47:45.845Z,79.83
2017-12-02T04:50:13.573Z,79.61
2017-12-02T04:52:41.173Z,79.94
2017-12-02T04:55:08.768Z,79.39
2017-12-02T04:57:36.338Z,79.32
2017-12-02T05:00:07.289Z,79.39
2017-12-02T05:02:34.933Z,78.97
2017-12-02T05:05:02.726Z,79.81
2017-12-02T05:07:30.353Z,79.93
2017-12-02T05:09:58.135Z,80.78
2017-12-02T05:12:25.891Z,80.44
2017-12-02T05:14:53.501Z,80.57
2017-12-02T05:17:21.110Z,80.05
2017-12-02T05:19:48.667Z,80.49
2017-12-02T05:22:16.262Z,79.46
2017-12-02T05:24:43.789Z,79.67
2017-12-02T05:27:11.401Z,80.27
2017-12-02T05:29:39.002Z,79.62
2017-12-02T05:32:06.592Z,79.88
2017-12-02T05:34:34.359Z,79.29
2017-12-02T05:37:01.989Z,78.66
2017-12-02T05:39:29.792Z,78.91
2017-12-02T05:41:57.400Z,78.06
2017-12-02T05:44:25.005Z,78.35
2017-12-02T05:46:52.613Z,79.34
2017-12-02T05:49:20.200Z,80.69
2017-12-02T05:51:47.729Z,80.45
2017-12-02T05:54:15.317Z,79.98
2017-12-02T05:56:42.929Z,79.11
2017-12-02T05:59:10.469Z,80.38
2017-12-02T06:01:38.626Z,80.46
2017-12-02T06:04:06.403Z,79.46
2017-12-02T06:06:33.960Z,79.33
2017-12-02T06:09:01.567Z,80.38
2017-12-02T06:11:29.394Z,80.12
2017-12-02T06:13:57.127Z,79.46
2017-12-02T06:16:24.900Z,80.42
2017-12-02T06:18:53.041Z,80.63
2017-12-02T06:21:20.877Z,78.84
2017-12-02T06:23:48.504Z,78.67
2017-12-02T06:26:16.286Z,79.02
2017-12-02T06:28:43.869Z,79.43
2017-12-02T06:31:11.866Z,78.21
2017-12-02T06:33:39.431Z,77.70
2017-12-02T06:36:07.034Z,77.96
2017-12-02T06:38:34.628Z,79.02
2017-12-02T06:41:03.077Z,78.79
2017-12-02T06:43:30.666Z,77.31
2017-12-02T06:45:58.244Z,77.95
2017-12-02T06:48:25.847Z,77.15
2017-12-02T06:50:53.379Z,75.82
2017-12-02T06:53:20.999Z,75.90
2017-12-02T06:55:48.520Z,75.71
2017-12-02T06:58:17.461Z,75.07
2017-12-02T07:00:46.789Z,75.21
2017-12-02T07:03:15.117Z,75.89
2017-12-02T07:05:45.228Z,75.03
2017-12-02T07:08:14.723Z,74.94
2017-12-02T07:10:43.542Z,73.77
2017-12-02T07:13:11.258Z,73.57
2017-12-02T07:15:38.836Z,73.77
2017-12-02T07:18:06.437Z,73.49
2017-12-02T07:20:34.423Z,74.02
2017-12-02T07:23:02.023Z,74.79
2017-12-02T07:25:29.586Z,74.67
2017-12-02T07:27:57.237Z,74.42
2017-12-02T07:30:24.850Z,74.16
2017-12-02T07:32:52.428Z,75.13
2017-12-02T07:35:21.042Z,74.04
2017-12-02T07:37:48.632Z,73.54
2017-12-02T07:40:16.326Z,73.85
2017-12-02T07:42:43.967Z,73.95
2017-12-02T07:45:11.566Z,73.61
2017-12-02T07:47:39.523Z,74.12
2017-12-02T07:50:20.596Z,73.53
2017-12-02T07:52:48.430Z,73.35
2017-12-02T07:55:16.079Z,74.10
2017-12-02T07:57:44.678Z,73.85
2017-12-02T08:00:13.253Z,73.23
2017-12-02T08:02:42.070Z,73.71
2017-12-02T08:05:09.845Z,74.18
2017-12-02T08:07:37.738Z,73.86
2017-12-02T08:10:05.373Z,73.53
2017-12-02T08:12:33.300Z,73.78
2017-12-02T08:15:00.966Z,73.56
2017-12-02T08:17:28.705Z,74.46
2017-12-02T08:19:56.332Z,74.65
2017-12-02T08:22:24.106Z,74.54
2017-12-02T08:24:51.978Z,74.76
2017-12-02T08:27:19.832Z,73.96
2017-12-02T08:29:47.493Z,74.21
2017-12-02T08:32:15.141Z,73.72
2017-12-02T08:34:42.945Z,73.21
2017-12-02T08:37:10.752Z,73.26
2017-12-02T08:39:38.493Z,72.55
2017-12-02T08:42:06.220Z,73.06
2017-12-02T08:44:34.074Z,73.18
2017-12-02T08:47:02.091Z,72.70
2017-12-02T08:49:29.610Z,73.10
2017-12-02T08:51:57.214Z,73.44
2017-12-02T08:54:24.783Z,73.25
2017-12-02T08:56:52.524Z,73.11
2017-12-02T08:59:20.194Z,73.59
2017-12-02T09:01:48.590Z,73.38
2017-12-02T09:04:16.389Z,73.71
2017-12-02T09:06:44.046Z,73.43
2017-12-02T09:09:12.226Z,72.92
2017-12-02T09:11:48.019Z,73.03
2017-12-02T09:14:18.020Z,73.08
2017-12-02T09:16:45.867Z,72.48
2017-12-02T09:19:14.093Z,72.09
2017-12-02T09:21:41.844Z,72.66
2017-12-02T09:24:09.423Z,72.46
2017-12-02T09:26:37.014Z,72.63
2017-12-02T09:29:05.066Z,73.17
2017-12-02T09:31:32.741Z,72.71
2017-12-02T09:34:00.330Z,72.49
2017-12-02T09:36:27.943Z,72.79
2017-12-02T09:38:55.596Z,72.26
2017-12-02T09:41:23.489Z,71.94
2017-12-02T09:43:51.380Z,71.24
2017-12-02T09:46:19.107Z,71.59
2017-12-02T09:48:46.750Z,71.50
2017-12-02T09:51:14.518Z,71.78
2017-12-02T09:53:42.069Z,70.93
2017-12-02T09:56:09.647Z,73.90
2017-12-02T09:58:37.170Z,76.21
2017-12-02T10:01:05.047Z,71.77
2017-12-02T10:03:32.596Z,70.81
2017-12-02T10:06:00.145Z,70.38
2017-12-02T10:08:27.736Z,70.36
2017-12-02T10:10:55.255Z,70.42
2017-12-02T10:13:22.813Z,70.74
2017-12-02T10:15:50.405Z,71.21
2017-12-02T10:18:17.936Z,71.64
2017-12-02T10:20:45.469Z,71.34
2017-12-02T10:23:13.038Z,71.42
2017-12-02T10:25:40.594Z,72.09
2017-12-02T10:28:08.120Z,72.39
2017-12-02T10:30:35.701Z,72.52
2017-12-02T10:33:03.298Z,72.57
2017-12-02T10:35:30.850Z,73.07
2017-12-02T10:37:58.436Z,73.25
2017-12-02T10:40:25.992Z,73.28
2017-12-02T10:42:54.230Z,73.60
2017-12-02T10:45:21.790Z,73.43
2017-12-02T10:47:49.321Z,72.77
2017-12-02T10:50:17.077Z,73.33
2017-12-02T10:52:44.676Z,73.14
2017-12-02T10:55:12.211Z,72.69
2017-12-02T10:57:39.740Z,72.10
2017-12-02T11:00:08.174Z,72.32
2017-12-02T11:02:35.728Z,72.22
2017-12-02T11:05:03.263Z,71.35
2017-12-02T11:07:30.822Z,70.94
2017-12-02T11:09:58.336Z,70.90
2017-12-02T11:12:26.115Z,70.84
2017-12-02T11:14:53.686Z,71.04
2017-12-02T11:17:22.008Z,71.22
2017-12-02T11:19:49.536Z,71.71
2017-12-02T11:22:17.070Z,71.38
2017-12-02T11:24:44.620Z,71.90
2017-12-02T11:27:12.161Z,72.11
2017-12-02T11:29:39.714Z,71.74
2017-12-02T11:32:07.273Z,71.20
2017-12-02T11:34:34.845Z,71.23
2017-12-02T11:37:02.423Z,71.34
2017-12-02T11:39:29.993Z,70.49
2017-12-02T11:41:57.553Z,70.91
2017-12-02T11:44:25.069Z,70.60
2017-12-02T11:46:52.622Z,71.68
2017-12-02T11:49:20.129Z,70.61
2017-12-02T11:51:47.666Z,70.41
2017-12-02T11:54:15.245Z,70.79
2017-12-02T11:56:42.770Z,70.83
2017-12-02T11:59:10.295Z,71.60
2017-12-02T12:01:37.856Z,71.20
2017-12-02T12:04:05.378Z,71.55
2017-12-02T12:06:32.922Z,70.95
2017-12-02T12:09:00.472Z,70.86
2017-12-02T12:11:28.227Z,70.79
2017-12-02T12:13:55.744Z,70.20
2017-12-02T12:16:23.517Z,69.89
2017-12-02T12:18:51.064Z,70.00
2017-12-02T12:21:18.565Z,70.13
2017-12-02T12:23:46.106Z,71.91
2017-12-02T12:26:13.613Z,71.90
2017-12-02T12:28:41.123Z,71.39
2017-12-02T12:31:08.666Z,71.13
2017-12-02T12:33:36.316Z,70.95
2017-12-02T12:36:03.862Z,71.55
2017-12-02T12:38:31.404Z,71.05
2017-12-02T12:40:58.940Z,72.26
2017-12-02T12:43:26.502Z,71.62
2017-12-02T12:45:55.252Z,71.37
2017-12-02T12:48:22.762Z,72.25
2017-12-02T12:50:50.285Z,71.77
2017-12-02T12:53:17.828Z,73.70
2017-12-02T12:55:46.492Z,71.62
2017-12-02T12:58:14.263Z,70.76
2017-12-02T13:00:42.115Z,72.47
2017-12-02T13:03:10.632Z,73.29
2017-12-02T13:05:38.178Z,72.19
2017-12-02T13:08:05.798Z,71.42
2017-12-02T13:10:33.526Z,71.64
2017-12-02T13:13:01.045Z,73.12
2017-12-02T13:15:28.619Z,73.20
2017-12-02T13:17:56.145Z,72.36
2017-12-02T13:20:24.147Z,71.62
2017-12-02T13:22:51.714Z,81.74
2017-12-02T13:25:19.266Z,76.30
2017-12-02T13:27:46.899Z,71.96
2017-12-02T13:30:15.063Z,78.42
2017-12-02T13:32:42.629Z,73.37
2017-12-02T13:35:10.386Z,72.99
2017-12-02T13:37:37.949Z,72.40
2017-12-02T13:40:05.460Z,73.97
2017-12-02T13:42:33.018Z,71.14
2017-12-02T13:45:00.586Z,73.04
2017-12-02T13:47:28.122Z,71.91
2017-12-02T13:49:55.641Z,72.13
2017-12-02T13:52:23.187Z,71.37
2017-12-02T13:54:50.711Z,71.99
2017-12-02T13:57:18.222Z,71.64
2017-12-02T13:59:45.892Z,71.49
2017-12-02T14:02:13.459Z,71.56
2017-12-02T14:04:41.054Z,73.34
2017-12-02T14:07:08.605Z,72.77
2017-12-02T14:09:36.176Z,72.99
2017-12-02T14:12:03.694Z,73.21
2017-12-02T14:14:31.232Z,73.35
2017-12-02T14:16:58.809Z,73.19
2017-12-02T14:19:26.370Z,72.12
2017-12-02T14:21:53.904Z,72.12
2017-12-02T14:24:21.463Z,72.54
2017-12-02T14:26:49.214Z,72.77
2017-12-02T14:29:16.778Z,75.27
2017-12-02T14:31:44.390Z,73.53
2017-12-02T14:34:12.007Z,73.57
2017-12-02T14:36:39.568Z,72.84
2017-12-02T14:39:07.217Z,71.74
2017-12-02T14:41:34.814Z,72.04
2017-12-02T14:44:02.363Z,72.23
2017-12-02T14:46:30.019Z,77.44
2017-12-02T14:48:57.566Z,72.16
2017-12-02T14:51:25.106Z,72.41
2017-12-02T14:53:52.628Z,72.84
2017-12-02T14:56:20.156Z,71.91
2017-12-02T14:58:47.800Z,72.46
2017-12-02T15:01:15.382Z,71.83
2017-12-02T15:03:42.950Z,71.62
2017-12-02T15:06:19.154Z,71.40
2017-12-02T15:08:46.843Z,71.31
2017-12-02T15:11:14.438Z,71.90
2017-12-02T15:13:43.033Z,71.49
2017-12-02T15:16:10.723Z,71.97
2017-12-02T15:18:38.382Z,73.16
2017-12-02T15:21:06.071Z,73.52
2017-12-02T15:23:33.687Z,71.91
2017-12-02T15:26:01.272Z,72.88
2017-12-02T15:28:29.216Z,71.69
2017-12-02T15:31:02.634Z,71.08
2017-12-02T15:33:34.668Z,71.15
2017-12-02T15:36:02.763Z,71.11
2017-12-02T15:38:30.510Z,71.34
2017-12-02T15:41:00.304Z,71.69
2017-12-02T15:46:58.950Z,70.63
2017-12-02T15:49:27.792Z,71.21
2017-12-02T15:51:55.755Z,70.96
2017-12-02T16:11:56.252Z,72.23
2017-12-02T16:14:30.416Z,72.18
2017-12-02T16:17:00.660Z,72.68
2017-12-02T16:19:37.873Z,73.82
2017-12-02T16:22:08.242Z,73.17
2017-12-02T16:24:36.006Z,73.00
2017-12-02T16:27:04.580Z,72.24
2017-12-02T16:29:32.204Z,72.31
2017-12-02T16:32:14.682Z,72.30
2017-12-02T16:34:44.815Z,72.16
2017-12-02T16:37:12.449Z,71.96
2017-12-02T16:39:40.083Z,72.50
2017-12-02T16:42:08.596Z,73.13
2017-12-02T16:44:36.723Z,72.42
2017-12-02T16:47:04.435Z,72.73
2017-12-02T16:49:33.207Z,73.60
2017-12-02T16:52:01.183Z,74.32
2017-12-02T16:54:28.999Z,74.07
2017-12-02T16:56:56.686Z,74.43
2017-12-02T16:59:24.373Z,73.76
2017-12-02T17:01:52.359Z,73.43
2017-12-02T17:04:20.066Z,72.65
2017-12-02T17:06:52.355Z,72.55
2017-12-02T17:12:57.444Z,73.31
2017-12-02T17:15:39.445Z,71.77
2017-12-02T17:18:22.320Z,71.22
2017-12-02T18:06:22.310Z,74.32
2017-12-02T18:23:06.107Z,74.90
2017-12-02T18:25:34.003Z,73.95
2017-12-02T18:28:01.647Z,75.14
2017-12-02T18:30:29.295Z,73.78
2017-12-02T18:32:56.912Z,75.09
2017-12-02T18:35:24.580Z,73.85
2017-12-02T18:37:53.352Z,75.23
2017-12-02T18:40:21.233Z,75.47
2017-12-02T18:42:53.949Z,75.08
2017-12-02T18:45:21.612Z,76.55
2017-12-02T18:47:49.629Z,75.45
2017-12-02T18:50:17.573Z,76.48
2017-12-02T18:52:45.152Z,76.26
2017-12-02T18:55:12.794Z,77.53
2017-12-02T18:57:40.581Z,77.62
2017-12-02T19:00:10.058Z,76.99
2017-12-02T19:02:37.669Z,75.00
2017-12-02T19:05:05.956Z,76.58
2017-12-02T19:07:34.455Z,76.60
2017-12-02T19:10:02.621Z,74.90
2017-12-02T19:12:32.093Z,76.06
2017-12-02T19:15:00.645Z,76.13
2017-12-02T19:17:29.461Z,75.73
2017-12-02T19:19:57.975Z,74.35
2017-12-02T19:22:25.730Z,74.33
2017-12-02T19:24:53.611Z,75.64
2017-12-02T19:27:22.323Z,75.42
2017-12-02T19:29:53.003Z,74.77
2017-12-02T19:32:20.819Z,74.31
2017-12-02T19:34:48.542Z,75.48
2017-12-02T19:37:16.662Z,74.69
2017-12-02T19:39:46.862Z,75.12
2017-12-02T19:42:18.150Z,74.19
2017-12-02T19:44:54.295Z,74.08
2017-12-02T19:47:23.156Z,74.93
2017-12-02T19:49:53.114Z,75.06
2017-12-02T19:52:22.017Z,75.15
2017-12-02T19:54:50.452Z,74.87
2017-12-02T19:57:22.249Z,76.24
2017-12-02T19:59:50.481Z,76.97
2017-12-02T20:02:21.105Z,76.37
2017-12-02T20:04:49.390Z,75.01
2017-12-02T20:07:25.812Z,74.89
2017-12-02T20:10:02.154Z,74.68
2017-12-02T20:12:29.926Z,74.60
2017-12-02T20:19:06.321Z,74.42
2017-12-02T20:21:34.954Z,74.58
2017-12-02T20:26:56.272Z,74.34
2017-12-02T20:29:26.507Z,75.04
2017-12-02T20:31:57.936Z,75.18
2017-12-02T20:42:38.840Z,75.26
2017-12-02T20:45:09.290Z,75.42
2017-12-02T20:47:38.151Z,75.16
2017-12-02T20:50:16.125Z,74.65
2017-12-02T20:52:48.708Z,75.96
2017-12-02T20:55:18.552Z,75.78
2017-12-02T21:00:26.449Z,74.05
2017-12-02T21:06:09.543Z,75.85
2017-12-02T23:53:28.192Z,73.93
2017-12-02T23:55:55.790Z,74.18
2017-12-02T23:58:23.321Z,75.79
